Robbinston, Maine
Current Conditions -  °F | °C
As of 9:00 AM on Friday 24 Oct 2014 (Local Time) from CYFC Reporting Station
Moderate Rain Moderate Rain  
Wind Chill: 41°   Ceiling: 1000
Heat Index: 46°   Visibility: 1.7mi
Dew Point: 46°   Wind: 13mph
Humidity: 100%   Direction: 30°NNE
Pressure: 29.68"   Gusts: 23mph
Location:  45.08°N, 67.11°W
Report Text: CYFC 241300Z AUTO 03011G20KT 1 3/4SM RA BR BKN010 OVC014 08/08 A2968 RMK VIS VRB 1-2 1/2 SLP051
Loading
Personal Weather Stations






























Interactive Weather Map
Tropical Storm Tracking
New forecast layout! Learn more

10-Day Weather Forecast

Advertisements
Track Severe Weather on mobile